Roatan, Honduras

4:02 PM CST on July 29, 2014 (GMT -0600)
Roatan International (MHRO) Elev 16 ft | 16.32 °N, 86.53 °W | Change Station

Current weather conditions updated 2 minutes ago

Mostly Cloudy
Mostly Cloudy
88 °F
Feels Like 98 °F
N
12
Wind Variable Wind from ENE

Tomorrow is forecast to be Cooler than today.

Today
High -- | Low -- °F
--% Chance of Precip.
Yesterday
High -- | Low -- °F
Precip. -- in
5:26 AM 6:18 PM
Waxing Crescent, 8% visible
Pressure 29.95 in
Visibility 6.2 miles
Clouds Few 2000 ft
Mostly Cloudy 7000 ft
Heat Index 98 °F
Dew Point 75 °F
Humidity 66%
Rainfall 0.00 in
Snow Depth Not available.
UV 3 out of 12
Pollen Not available.
Air Quality Not available.
Flu Activity Not available.
METAR MHRO 292200Z 07010KT 9999 FEW020 BKN070 31/24 Q1014 A2996 NOSIG

More Conditions Fewer Conditions

Pressure 29.95 in
Visibility 6.2 miles
Clouds Few 2000 ft
Mostly Cloudy 7000 ft
Heat Index 98 °F
Dew Point 75 °F
Humidity 66%
Rainfall 0.00 in
Snow Depth Not available.
UV 3 out of 12
Pollen Not available.
Air Quality Not available.
Flu Activity Not available.
METAR MHRO 292200Z 07010KT 9999 FEW020 BKN070 31/24 Q1014 A2996 NOSIG

More Conditions Fewer Conditions

10-Day Weather Forecast

Almanac

Astronomy

Jul. 29, 2014 Rise Set
Actual Time 5:26 AM CST 6:18 PM CST
Civil Twilight 5:03 AM CST 6:41 PM CST
Nautical Twilight 4:36 AM CST 7:08 PM CST
Astronomical Twilight 4:08 AM CST 7:36 PM CST
Moon 7:31 AM CST 8:05 PM CST
Length of Visible Light 13h 38m
Length of Day
12h 52m
Tomorrow will be 0m 39s shorter.
Waxing Crescent, 8% of the Moon is Illuminated
Today
Waxing Crescent
Aug 3
First Quarter
Aug 10
Full
Aug 17
Last Quarter
Aug 25
New

Today's Extremes

Country Highs Country Lows

Community

WunderPhotos

Upload Photos

1,738,878 photos uploaded!

Nearby

Snow Depth

Not available.

Earthquake Activity

City Distance Mag. Time & Date
No recent earthquake activity has been reported nearby.
Minimum magnitude displayed is 2.5.

Coastal Water Temperatures

Place Temperature
No Stations Reporting

Nearby Weather Stations

Station Location Temp. Heat Index Dew Point Humidity Wind Precip. Elev Updated Type
Calabash Bight, Calabash Bight 85.8 °F 99 °F 79 °F 80% NNE  at  3.0 mph 0.00 in / hr 96 ft 4:02 PM CST Normal

Show More Stations Show Fewer Stations